sensor_id;sensor_type;location;lat;lon;timestamp;temperature;humidity
45115;DHT22;30877;43.706;10.780;2023-06-14T00:00:08;20.40;96.70
45115;DHT22;30877;43.706;10.780;2023-06-14T00:02:36;20.40;96.70
45115;DHT22;30877;43.706;10.780;2023-06-14T00:05:05;20.50;96.70
45115;DHT22;30877;43.706;10.780;2023-06-14T00:07:35;20.40;96.70
45115;DHT22;30877;43.706;10.780;2023-06-14T00:10:04;20.50;96.70
45115;DHT22;30877;43.706;10.780;2023-06-14T00:12:32;20.50;96.70
45115;DHT22;30877;43.706;10.780;2023-06-14T00:15:00;20.40;96.70
45115;DHT22;30877;43.706;10.780;2023-06-14T00:17:33;20.30;96.70
45115;DHT22;30877;43.706;10.780;2023-06-14T00:20:03;20.00;96.70
45115;DHT22;30877;43.706;10.780;2023-06-14T00:22:34;19.90;96.70
45115;DHT22;30877;43.706;10.780;2023-06-14T00:25:05;20.00;96.70
45115;DHT22;30877;43.706;10.780;2023-06-14T00:27:54;20.20;96.70
45115;DHT22;30877;43.706;10.780;2023-06-14T00:30:23;20.30;96.70
45115;DHT22;30877;43.706;10.780;2023-06-14T00:32:53;20.30;96.70
45115;DHT22;30877;43.706;10.780;2023-06-14T00:35:25;20.10;96.70
45115;DHT22;30877;43.706;10.780;2023-06-14T00:37:53;20.10;96.70
45115;DHT22;30877;43.706;10.780;2023-06-14T00:40:22;20.00;96.70
45115;DHT22;30877;43.706;10.780;2023-06-14T00:42:50;20.00;96.70
45115;DHT22;30877;43.706;10.780;2023-06-14T00:45:19;19.90;96.70
45115;DHT22;30877;43.706;10.780;2023-06-14T00:47:48;20.00;96.70
45115;DHT22;30877;43.706;10.780;2023-06-14T00:50:22;20.00;96.70
45115;DHT22;30877;43.706;10.780;2023-06-14T00:52:51;20.10;96.70
45115;DHT22;30877;43.706;10.780;2023-06-14T00:55:19;20.10;96.70
45115;DHT22;30877;43.706;10.780;2023-06-14T00:57:48;20.10;96.70
45115;DHT22;30877;43.706;10.780;2023-06-14T01:00:17;20.10;96.70
45115;DHT22;30877;43.706;10.780;2023-06-14T01:02:46;20.10;96.70
45115;DHT22;30877;43.706;10.780;2023-06-14T01:05:15;20.10;96.70
45115;DHT22;30877;43.706;10.780;2023-06-14T01:07:55;20.00;96.70
45115;DHT22;30877;43.706;10.780;2023-06-14T01:10:35;19.90;96.70
45115;DHT22;30877;43.706;10.780;2023-06-14T01:13:08;19.90;96.70
45115;DHT22;30877;43.706;10.780;2023-06-14T01:15:39;19.90;96.70
45115;DHT22;30877;43.706;10.780;2023-06-14T01:18:09;19.80;96.70
45115;DHT22;30877;43.706;10.780;2023-06-14T01:20:46;19.90;96.70
45115;DHT22;30877;43.706;10.780;2023-06-14T01:23:21;19.90;96.70
45115;DHT22;30877;43.706;10.780;2023-06-14T01:25:50;20.00;96.70
45115;DHT22;30877;43.706;10.780;2023-06-14T01:28:22;20.00;96.70
45115;DHT22;30877;43.706;10.780;2023-06-14T01:30:52;20.10;96.70
45115;DHT22;30877;43.706;10.780;2023-06-14T01:33:25;20.10;96.70
45115;DHT22;30877;43.706;10.780;2023-06-14T01:35:58;20.10;96.70
45115;DHT22;30877;43.706;10.780;2023-06-14T01:38:32;20.20;96.70
45115;DHT22;30877;43.706;10.780;2023-06-14T01:41:01;20.10;96.70
45115;DHT22;30877;43.706;10.780;2023-06-14T01:43:30;20.10;96.70
45115;DHT22;30877;43.706;10.780;2023-06-14T01:46:00;20.00;96.70
45115;DHT22;30877;43.706;10.780;2023-06-14T01:48:28;19.90;96.70
45115;DHT22;30877;43.706;10.780;2023-06-14T01:50:56;19.90;96.70
45115;DHT22;30877;43.706;10.780;2023-06-14T01:53:24;19.80;96.70
45115;DHT22;30877;43.706;10.780;2023-06-14T01:55:54;19.90;96.70
45115;DHT22;30877;43.706;10.780;2023-06-14T01:58:22;19.90;96.70
45115;DHT22;30877;43.706;10.780;2023-06-14T02:00:57;19.80;96.70
45115;DHT22;30877;43.706;10.780;2023-06-14T02:03:28;19.80;96.70
45115;DHT22;30877;43.706;10.780;2023-06-14T02:05:57;19.70;96.70
45115;DHT22;30877;43.706;10.780;2023-06-14T02:08:26;19.80;96.70
45115;DHT22;30877;43.706;10.780;2023-06-14T02:10:55;20.00;96.70
45115;DHT22;30877;43.706;10.780;2023-06-14T02:13:24;20.00;96.70
45115;DHT22;30877;43.706;10.780;2023-06-14T02:15:52;20.10;96.70
45115;DHT22;30877;43.706;10.780;2023-06-14T02:18:23;20.00;96.70
45115;DHT22;30877;43.706;10.780;2023-06-14T02:20:51;20.00;96.70
45115;DHT22;30877;43.706;10.780;2023-06-14T02:23:19;19.90;96.70
45115;DHT22;30877;43.706;10.780;2023-06-14T02:25:48;19.90;96.70
45115;DHT22;30877;43.706;10.780;2023-06-14T02:28:17;20.00;96.70
45115;DHT22;30877;43.706;10.780;2023-06-14T02:30:46;19.90;96.70
45115;DHT22;30877;43.706;10.780;2023-06-14T02:33:14;19.90;96.70
45115;DHT22;30877;43.706;10.780;2023-06-14T02:35:43;19.90;96.70
45115;DHT22;30877;43.706;10.780;2023-06-14T02:38:11;19.80;96.70
45115;DHT22;30877;43.706;10.780;2023-06-14T02:40:41;19.90;96.70
45115;DHT22;30877;43.706;10.780;2023-06-14T02:43:10;19.90;96.70
45115;DHT22;30877;43.706;10.780;2023-06-14T02:45:40;19.90;96.70
45115;DHT22;30877;43.706;10.780;2023-06-14T02:48:08;19.90;96.70
45115;DHT22;30877;43.706;10.780;2023-06-14T02:50:37;20.00;96.70
45115;DHT22;30877;43.706;10.780;2023-06-14T02:53:06;19.90;96.70
45115;DHT22;30877;43.706;10.780;2023-06-14T02:55:34;19.90;96.70
45115;DHT22;30877;43.706;10.780;2023-06-14T02:58:08;19.80;96.70
45115;DHT22;30877;43.706;10.780;2023-06-14T03:00:38;19.60;96.70
45115;DHT22;30877;43.706;10.780;2023-06-14T03:03:08;19.50;96.70
45115;DHT22;30877;43.706;10.780;2023-06-14T03:05:52;19.60;96.70
45115;DHT22;30877;43.706;10.780;2023-06-14T03:08:23;19.70;96.70
45115;DHT22;30877;43.706;10.780;2023-06-14T03:10:59;19.90;96.70
45115;DHT22;30877;43.706;10.780;2023-06-14T03:13:27;20.00;96.70
45115;DHT22;30877;43.706;10.780;2023-06-14T03:16:00;20.00;96.70
45115;DHT22;30877;43.706;10.780;2023-06-14T03:18:37;20.00;96.70
45115;DHT22;30877;43.706;10.780;2023-06-14T03:21:06;19.80;96.70
45115;DHT22;30877;43.706;10.780;2023-06-14T03:23:35;19.40;96.70
45115;DHT22;30877;43.706;10.780;2023-06-14T03:26:04;19.30;96.70
45115;DHT22;30877;43.706;10.780;2023-06-14T03:28:33;19.40;96.70
45115;DHT22;30877;43.706;10.780;2023-06-14T03:31:01;19.70;96.70
45115;DHT22;30877;43.706;10.780;2023-06-14T03:33:32;19.80;96.70
45115;DHT22;30877;43.706;10.780;2023-06-14T03:36:02;19.70;96.70
45115;DHT22;30877;43.706;10.780;2023-06-14T03:38:31;19.80;96.70
45115;DHT22;30877;43.706;10.780;2023-06-14T03:41:00;19.70;96.70
45115;DHT22;30877;43.706;10.780;2023-06-14T03:43:28;19.80;96.70
45115;DHT22;30877;43.706;10.780;2023-06-14T03:45:58;19.90;96.70
45115;DHT22;30877;43.706;10.780;2023-06-14T03:48:28;20.00;96.70
45115;DHT22;30877;43.706;10.780;2023-06-14T03:50:56;20.00;96.70
45115;DHT22;30877;43.706;10.780;2023-06-14T03:53:30;19.90;96.70
45115;DHT22;30877;43.706;10.780;2023-06-14T03:55:59;19.90;96.70
45115;DHT22;30877;43.706;10.780;2023-06-14T03:58:37;20.00;96.70
45115;DHT22;30877;43.706;10.780;2023-06-14T04:01:06;19.90;96.70
45115;DHT22;30877;43.706;10.780;2023-06-14T04:03:34;19.80;96.70
45115;DHT22;30877;43.706;10.780;2023-06-14T04:06:04;19.70;96.70
45115;DHT22;30877;43.706;10.780;2023-06-14T04:08:35;19.70;96.70
45115;DHT22;30877;43.706;10.780;2023-06-14T04:11:09;19.80;96.70
45115;DHT22;30877;43.706;10.780;2023-06-14T04:13:37;19.80;96.70
45115;DHT22;30877;43.706;10.780;2023-06-14T04:16:07;19.90;96.70
45115;DHT22;30877;43.706;10.780;2023-06-14T04:18:36;19.70;96.70
45115;DHT22;30877;43.706;10.780;2023-06-14T04:21:04;19.70;96.70
45115;DHT22;30877;43.706;10.780;2023-06-14T04:23:34;19.70;96.70
45115;DHT22;30877;43.706;10.780;2023-06-14T04:26:02;19.60;96.70
45115;DHT22;30877;43.706;10.780;2023-06-14T04:28:31;19.70;96.70
45115;DHT22;30877;43.706;10.780;2023-06-14T04:31:02;19.90;96.70
45115;DHT22;30877;43.706;10.780;2023-06-14T04:33:32;19.90;96.70
45115;DHT22;30877;43.706;10.780;2023-06-14T04:36:01;19.90;96.70
45115;DHT22;30877;43.706;10.780;2023-06-14T04:38:29;19.90;96.70
45115;DHT22;30877;43.706;10.780;2023-06-14T04:41:01;19.90;96.70
45115;DHT22;30877;43.706;10.780;2023-06-14T04:43:29;19.90;96.70
45115;DHT22;30877;43.706;10.780;2023-06-14T04:45:59;20.00;96.70
45115;DHT22;30877;43.706;10.780;2023-06-14T04:48:30;19.90;96.70
45115;DHT22;30877;43.706;10.780;2023-06-14T04:50:59;19.80;96.70
45115;DHT22;30877;43.706;10.780;2023-06-14T04:53:27;19.80;96.70
45115;DHT22;30877;43.706;10.780;2023-06-14T04:55:57;19.80;96.70
45115;DHT22;30877;43.706;10.780;2023-06-14T04:58:28;19.90;96.70
45115;DHT22;30877;43.706;10.780;2023-06-14T05:00:56;20.00;96.70
45115;DHT22;30877;43.706;10.780;2023-06-14T05:03:27;20.00;96.70
45115;DHT22;30877;43.706;10.780;2023-06-14T05:05:59;20.00;96.70
45115;DHT22;30877;43.706;10.780;2023-06-14T05:08:28;20.00;96.70
45115;DHT22;30877;43.706;10.780;2023-06-14T05:10:57;20.00;96.70
45115;DHT22;30877;43.706;10.780;2023-06-14T05:13:28;20.10;96.70
45115;DHT22;30877;43.706;10.780;2023-06-14T05:15:56;20.20;96.70
45115;DHT22;30877;43.706;10.780;2023-06-14T05:18:24;20.10;96.70
45115;DHT22;30877;43.706;10.780;2023-06-14T05:20:56;20.10;96.70
45115;DHT22;30877;43.706;10.780;2023-06-14T05:23:24;20.20;96.70
45115;DHT22;30877;43.706;10.780;2023-06-14T05:25:52;20.30;96.70
45115;DHT22;30877;43.706;10.780;2023-06-14T05:28:20;20.40;96.70
45115;DHT22;30877;43.706;10.780;2023-06-14T05:30:50;20.50;96.70
45115;DHT22;30877;43.706;10.780;2023-06-14T05:33:19;20.60;96.70
45115;DHT22;30877;43.706;10.780;2023-06-14T05:35:47;20.70;96.70
45115;DHT22;30877;43.706;10.780;2023-06-14T05:38:15;20.70;96.70
45115;DHT22;30877;43.706;10.780;2023-06-14T05:40:43;20.80;96.70
45115;DHT22;30877;43.706;10.780;2023-06-14T05:43:11;20.90;96.70
45115;DHT22;30877;43.706;10.780;2023-06-14T05:45:41;20.90;96.70
45115;DHT22;30877;43.706;10.780;2023-06-14T05:48:11;21.00;96.70
45115;DHT22;30877;43.706;10.780;2023-06-14T05:50:39;21.10;96.70
45115;DHT22;30877;43.706;10.780;2023-06-14T05:53:07;21.20;96.70
45115;DHT22;30877;43.706;10.780;2023-06-14T05:55:35;21.30;96.70
45115;DHT22;30877;43.706;10.780;2023-06-14T05:58:04;21.30;96.70
45115;DHT22;30877;43.706;10.780;2023-06-14T06:00:32;21.20;96.70
45115;DHT22;30877;43.706;10.780;2023-06-14T06:03:00;21.20;96.70
45115;DHT22;30877;43.706;10.780;2023-06-14T06:05:31;21.30;96.70
45115;DHT22;30877;43.706;10.780;2023-06-14T06:07:59;21.30;96.70
45115;DHT22;30877;43.706;10.780;2023-06-14T06:10:28;21.40;96.70
45115;DHT22;30877;43.706;10.780;2023-06-14T06:12:56;21.50;96.70
45115;DHT22;30877;43.706;10.780;2023-06-14T06:15:24;21.50;96.70
45115;DHT22;30877;43.706;10.780;2023-06-14T06:17:52;21.50;96.70
45115;DHT22;30877;43.706;10.780;2023-06-14T06:20:23;21.50;96.70
45115;DHT22;30877;43.706;10.780;2023-06-14T06:22:58;21.50;96.70
45115;DHT22;30877;43.706;10.780;2023-06-14T06:25:27;21.50;96.70
45115;DHT22;30877;43.706;10.780;2023-06-14T06:27:55;21.60;96.70
45115;DHT22;30877;43.706;10.780;2023-06-14T06:30:26;21.60;96.70
45115;DHT22;30877;43.706;10.780;2023-06-14T06:32:54;21.60;96.70
45115;DHT22;30877;43.706;10.780;2023-06-14T06:35:23;21.70;96.70
45115;DHT22;30877;43.706;10.780;2023-06-14T06:37:52;21.80;96.70
45115;DHT22;30877;43.706;10.780;2023-06-14T06:40:22;21.80;96.70
45115;DHT22;30877;43.706;10.780;2023-06-14T06:42:50;21.90;96.70
45115;DHT22;30877;43.706;10.780;2023-06-14T06:45:19;22.00;96.70
45115;DHT22;30877;43.706;10.780;2023-06-14T06:47:51;22.00;96.70
45115;DHT22;30877;43.706;10.780;2023-06-14T06:50:19;22.00;96.70
45115;DHT22;30877;43.706;10.780;2023-06-14T06:52:48;22.00;96.70
45115;DHT22;30877;43.706;10.780;2023-06-14T06:55:16;22.00;96.70
45115;DHT22;30877;43.706;10.780;2023-06-14T06:57:46;22.10;96.70
45115;DHT22;30877;43.706;10.780;2023-06-14T07:00:14;22.20;96.70
45115;DHT22;30877;43.706;10.780;2023-06-14T07:02:43;22.30;96.70
45115;DHT22;30877;43.706;10.780;2023-06-14T07:05:12;22.40;96.70
45115;DHT22;30877;43.706;10.780;2023-06-14T07:07:40;22.50;96.70
45115;DHT22;30877;43.706;10.780;2023-06-14T07:10:08;22.60;96.70
45115;DHT22;30877;43.706;10.780;2023-06-14T07:12:37;22.60;96.70
45115;DHT22;30877;43.706;10.780;2023-06-14T07:15:09;22.70;96.70
45115;DHT22;30877;43.706;10.780;2023-06-14T07:17:37;22.70;96.70
45115;DHT22;30877;43.706;10.780;2023-06-14T07:20:07;22.90;96.70
45115;DHT22;30877;43.706;10.780;2023-06-14T07:22:35;22.90;96.70
45115;DHT22;30877;43.706;10.780;2023-06-14T07:25:04;22.90;96.70
45115;DHT22;30877;43.706;10.780;2023-06-14T07:27:33;22.90;96.70
45115;DHT22;30877;43.706;10.780;2023-06-14T07:30:01;23.00;96.70
45115;DHT22;30877;43.706;10.780;2023-06-14T07:32:30;23.00;96.70
45115;DHT22;30877;43.706;10.780;2023-06-14T07:34:59;23.00;96.70
45115;DHT22;30877;43.706;10.780;2023-06-14T07:37:27;23.10;96.70
45115;DHT22;30877;43.706;10.780;2023-06-14T07:39:55;23.20;96.70
45115;DHT22;30877;43.706;10.780;2023-06-14T07:42:23;23.30;96.70
45115;DHT22;30877;43.706;10.780;2023-06-14T07:44:51;23.30;96.70
45115;DHT22;30877;43.706;10.780;2023-06-14T07:47:30;23.50;96.70
45115;DHT22;30877;43.706;10.780;2023-06-14T07:50:05;23.60;96.70
45115;DHT22;30877;43.706;10.780;2023-06-14T07:52:36;23.60;96.70
45115;DHT22;30877;43.706;10.780;2023-06-14T07:55:05;23.70;96.70
45115;DHT22;30877;43.706;10.780;2023-06-14T07:57:34;23.70;96.70
45115;DHT22;30877;43.706;10.780;2023-06-14T08:00:03;23.80;96.70
45115;DHT22;30877;43.706;10.780;2023-06-14T08:02:39;23.90;96.70
45115;DHT22;30877;43.706;10.780;2023-06-14T08:05:09;24.00;96.70
45115;DHT22;30877;43.706;10.780;2023-06-14T08:07:38;24.00;96.70
45115;DHT22;30877;43.706;10.780;2023-06-14T08:10:07;24.10;96.70
45115;DHT22;30877;43.706;10.780;2023-06-14T08:12:35;24.10;96.70
45115;DHT22;30877;43.706;10.780;2023-06-14T08:15:05;24.10;96.70
45115;DHT22;30877;43.706;10.780;2023-06-14T08:17:44;24.10;96.70
45115;DHT22;30877;43.706;10.780;2023-06-14T08:23:03;24.20;96.70
45115;DHT22;30877;43.706;10.780;2023-06-14T08:25:31;24.30;96.70
45115;DHT22;30877;43.706;10.780;2023-06-14T08:27:59;24.30;96.70
45115;DHT22;30877;43.706;10.780;2023-06-14T08:30:27;24.30;96.70
45115;DHT22;30877;43.706;10.780;2023-06-14T08:32:57;24.30;96.70
45115;DHT22;30877;43.706;10.780;2023-06-14T08:35:42;24.40;96.70
45115;DHT22;30877;43.706;10.780;2023-06-14T08:38:11;24.50;96.70
45115;DHT22;30877;43.706;10.780;2023-06-14T08:40:41;24.50;96.70
45115;DHT22;30877;43.706;10.780;2023-06-14T08:43:09;24.40;96.70
45115;DHT22;30877;43.706;10.780;2023-06-14T08:45:37;24.40;96.70
45115;DHT22;30877;43.706;10.780;2023-06-14T08:48:27;24.30;96.70
45115;DHT22;30877;43.706;10.780;2023-06-14T08:50:56;24.50;96.70
45115;DHT22;30877;43.706;10.780;2023-06-14T08:53:30;24.60;96.70
45115;DHT22;30877;43.706;10.780;2023-06-14T08:56:04;24.70;96.70
45115;DHT22;30877;43.706;10.780;2023-06-14T08:58:34;24.80;96.70
45115;DHT22;30877;43.706;10.780;2023-06-14T09:01:01;25.00;96.70
45115;DHT22;30877;43.706;10.780;2023-06-14T09:03:31;25.10;96.70
45115;DHT22;30877;43.706;10.780;2023-06-14T09:06:01;25.30;96.70
45115;DHT22;30877;43.706;10.780;2023-06-14T09:08:29;25.30;96.70
45115;DHT22;30877;43.706;10.780;2023-06-14T09:10:58;25.50;96.70
45115;DHT22;30877;43.706;10.780;2023-06-14T09:13:28;25.60;96.70
45115;DHT22;30877;43.706;10.780;2023-06-14T09:15:58;25.50;96.70
45115;DHT22;30877;43.706;10.780;2023-06-14T09:18:35;25.60;96.70
45115;DHT22;30877;43.706;10.780;2023-06-14T09:21:03;25.80;96.70
45115;DHT22;30877;43.706;10.780;2023-06-14T09:23:34;25.70;96.70
45115;DHT22;30877;43.706;10.780;2023-06-14T09:26:07;25.60;96.70
45115;DHT22;30877;43.706;10.780;2023-06-14T09:28:36;25.70;96.70
45115;DHT22;30877;43.706;10.780;2023-06-14T09:31:04;25.80;96.70
45115;DHT22;30877;43.706;10.780;2023-06-14T09:33:34;25.80;96.70
45115;DHT22;30877;43.706;10.780;2023-06-14T09:36:04;25.70;96.70
45115;DHT22;30877;43.706;10.780;2023-06-14T09:38:34;25.80;96.70
45115;DHT22;30877;43.706;10.780;2023-06-14T09:41:04;26.00;96.70
45115;DHT22;30877;43.706;10.780;2023-06-14T09:43:33;26.20;96.70
45115;DHT22;30877;43.706;10.780;2023-06-14T09:46:01;26.20;96.70
45115;DHT22;30877;43.706;10.780;2023-06-14T09:48:31;26.30;96.70
45115;DHT22;30877;43.706;10.780;2023-06-14T09:51:01;26.40;96.70
45115;DHT22;30877;43.706;10.780;2023-06-14T09:53:30;26.50;96.70
45115;DHT22;30877;43.706;10.780;2023-06-14T09:55:59;26.60;96.70
45115;DHT22;30877;43.706;10.780;2023-06-14T09:58:28;26.60;96.70
45115;DHT22;30877;43.706;10.780;2023-06-14T10:00:58;26.50;96.70
45115;DHT22;30877;43.706;10.780;2023-06-14T10:03:28;26.40;96.70
45115;DHT22;30877;43.706;10.780;2023-06-14T10:06:18;26.30;96.70
45115;DHT22;30877;43.706;10.780;2023-06-14T10:08:49;26.30;96.70
45115;DHT22;30877;43.706;10.780;2023-06-14T10:11:18;26.40;96.70
45115;DHT22;30877;43.706;10.780;2023-06-14T10:13:47;26.50;96.70
45115;DHT22;30877;43.706;10.780;2023-06-14T10:16:19;26.50;96.70
45115;DHT22;30877;43.706;10.780;2023-06-14T10:18:51;26.50;96.70
45115;DHT22;30877;43.706;10.780;2023-06-14T10:21:28;26.50;96.70
45115;DHT22;30877;43.706;10.780;2023-06-14T10:24:03;26.50;96.70
45115;DHT22;30877;43.706;10.780;2023-06-14T10:26:33;26.80;96.70
45115;DHT22;30877;43.706;10.780;2023-06-14T10:29:01;26.70;96.70
45115;DHT22;30877;43.706;10.780;2023-06-14T10:31:41;26.40;96.70
45115;DHT22;30877;43.706;10.780;2023-06-14T10:34:10;26.20;96.70
45115;DHT22;30877;43.706;10.780;2023-06-14T10:36:43;26.30;96.70
45115;DHT22;30877;43.706;10.780;2023-06-14T10:39:17;26.20;96.70
45115;DHT22;30877;43.706;10.780;2023-06-14T10:41:54;26.20;96.70
45115;DHT22;30877;43.706;10.780;2023-06-14T10:44:39;26.00;96.70
45115;DHT22;30877;43.706;10.780;2023-06-14T10:47:10;25.90;96.70
45115;DHT22;30877;43.706;10.780;2023-06-14T10:49:40;25.90;96.70
45115;DHT22;30877;43.706;10.780;2023-06-14T10:55:12;26.00;96.70
45115;DHT22;30877;43.706;10.780;2023-06-14T10:57:45;26.10;96.70
45115;DHT22;30877;43.706;10.780;2023-06-14T11:00:20;26.30;96.70
45115;DHT22;30877;43.706;10.780;2023-06-14T11:03:24;26.50;96.70
45115;DHT22;30877;43.706;10.780;2023-06-14T11:05:58;26.50;96.70
45115;DHT22;30877;43.706;10.780;2023-06-14T11:11:42;26.40;96.70
45115;DHT22;30877;43.706;10.780;2023-06-14T11:14:12;26.80;96.70
45115;DHT22;30877;43.706;10.780;2023-06-14T11:16:40;27.10;96.70
45115;DHT22;30877;43.706;10.780;2023-06-14T11:19:09;27.40;96.70
45115;DHT22;30877;43.706;10.780;2023-06-14T11:21:40;27.50;96.70
45115;DHT22;30877;43.706;10.780;2023-06-14T11:24:10;27.50;96.70
45115;DHT22;30877;43.706;10.780;2023-06-14T11:26:41;27.60;96.70
45115;DHT22;30877;43.706;10.780;2023-06-14T11:29:09;27.80;96.70
45115;DHT22;30877;43.706;10.780;2023-06-14T11:31:38;28.00;96.70
45115;DHT22;30877;43.706;10.780;2023-06-14T11:34:12;27.60;96.70
45115;DHT22;30877;43.706;10.780;2023-06-14T11:36:40;27.30;96.70
45115;DHT22;30877;43.706;10.780;2023-06-14T11:39:09;27.70;96.70
45115;DHT22;30877;43.706;10.780;2023-06-14T11:41:41;28.20;96.70
45115;DHT22;30877;43.706;10.780;2023-06-14T11:44:10;28.50;96.70
45115;DHT22;30877;43.706;10.780;2023-06-14T11:46:40;28.30;96.70
45115;DHT22;30877;43.706;10.780;2023-06-14T11:49:09;28.50;96.70
45115;DHT22;30877;43.706;10.780;2023-06-14T11:51:37;28.90;96.70
45115;DHT22;30877;43.706;10.780;2023-06-14T11:54:07;29.30;96.70
45115;DHT22;30877;43.706;10.780;2023-06-14T11:56:37;29.60;96.70
45115;DHT22;30877;43.706;10.780;2023-06-14T11:59:06;29.70;96.70
45115;DHT22;30877;43.706;10.780;2023-06-14T12:01:38;29.70;96.70
45115;DHT22;30877;43.706;10.780;2023-06-14T12:04:07;29.70;96.70
45115;DHT22;30877;43.706;10.780;2023-06-14T12:06:36;29.40;96.70
45115;DHT22;30877;43.706;10.780;2023-06-14T12:09:08;29.40;96.70
45115;DHT22;30877;43.706;10.780;2023-06-14T12:11:41;29.30;96.70
45115;DHT22;30877;43.706;10.780;2023-06-14T12:14:11;29.10;96.70
45115;DHT22;30877;43.706;10.780;2023-06-14T12:16:40;28.80;96.70
45115;DHT22;30877;43.706;10.780;2023-06-14T12:19:13;29.00;96.70
45115;DHT22;30877;43.706;10.780;2023-06-14T12:21:42;29.20;96.70
45115;DHT22;30877;43.706;10.780;2023-06-14T12:24:12;29.20;96.70
45115;DHT22;30877;43.706;10.780;2023-06-14T12:26:42;29.10;96.70
45115;DHT22;30877;43.706;10.780;2023-06-14T12:29:13;29.00;96.70
45115;DHT22;30877;43.706;10.780;2023-06-14T12:31:42;29.00;96.70
45115;DHT22;30877;43.706;10.780;2023-06-14T12:34:10;29.10;96.70
45115;DHT22;30877;43.706;10.780;2023-06-14T12:36:39;29.10;96.70
45115;DHT22;30877;43.706;10.780;2023-06-14T12:39:12;29.20;96.70
45115;DHT22;30877;43.706;10.780;2023-06-14T12:41:41;29.40;96.70
45115;DHT22;30877;43.706;10.780;2023-06-14T12:44:10;29.50;96.70
45115;DHT22;30877;43.706;10.780;2023-06-14T12:46:41;29.60;96.70
45115;DHT22;30877;43.706;10.780;2023-06-14T12:49:10;29.80;96.70
45115;DHT22;30877;43.706;10.780;2023-06-14T12:51:40;29.70;96.70
45115;DHT22;30877;43.706;10.780;2023-06-14T12:54:08;29.50;96.70
45115;DHT22;30877;43.706;10.780;2023-06-14T12:56:37;29.80;96.70
45115;DHT22;30877;43.706;10.780;2023-06-14T12:59:05;29.60;96.70
45115;DHT22;30877;43.706;10.780;2023-06-14T13:01:34;29.50;96.70
45115;DHT22;30877;43.706;10.780;2023-06-14T13:04:04;29.30;96.70
45115;DHT22;30877;43.706;10.780;2023-06-14T13:06:32;29.10;96.70
45115;DHT22;30877;43.706;10.780;2023-06-14T13:09:01;28.90;96.70
45115;DHT22;30877;43.706;10.780;2023-06-14T13:11:30;28.70;96.70
45115;DHT22;30877;43.706;10.780;2023-06-14T13:13:58;28.70;96.70
45115;DHT22;30877;43.706;10.780;2023-06-14T13:16:32;28.50;96.70
45115;DHT22;30877;43.706;10.780;2023-06-14T13:19:00;28.20;96.70
45115;DHT22;30877;43.706;10.780;2023-06-14T13:21:30;27.70;96.70
45115;DHT22;30877;43.706;10.780;2023-06-14T13:23:59;27.10;96.70
45115;DHT22;30877;43.706;10.780;2023-06-14T13:26:28;26.70;96.70
45115;DHT22;30877;43.706;10.780;2023-06-14T13:28:57;26.30;96.70
45115;DHT22;30877;43.706;10.780;2023-06-14T13:31:26;25.90;96.70
45115;DHT22;30877;43.706;10.780;2023-06-14T13:33:54;25.70;96.70
45115;DHT22;30877;43.706;10.780;2023-06-14T13:36:23;25.20;96.70
45115;DHT22;30877;43.706;10.780;2023-06-14T13:38:52;24.90;96.70
45115;DHT22;30877;43.706;10.780;2023-06-14T13:41:22;24.60;96.70
45115;DHT22;30877;43.706;10.780;2023-06-14T13:43:51;24.20;96.70
45115;DHT22;30877;43.706;10.780;2023-06-14T13:46:19;24.10;96.70
45115;DHT22;30877;43.706;10.780;2023-06-14T13:48:47;23.90;96.70
45115;DHT22;30877;43.706;10.780;2023-06-14T13:51:17;23.40;96.70
45115;DHT22;30877;43.706;10.780;2023-06-14T13:53:47;23.30;96.70
45115;DHT22;30877;43.706;10.780;2023-06-14T13:56:18;23.20;96.70
45115;DHT22;30877;43.706;10.780;2023-06-14T13:58:46;23.20;96.70
45115;DHT22;30877;43.706;10.780;2023-06-14T14:01:15;23.20;96.70
45115;DHT22;30877;43.706;10.780;2023-06-14T14:03:46;23.20;96.70
45115;DHT22;30877;43.706;10.780;2023-06-14T14:06:15;23.30;96.70
45115;DHT22;30877;43.706;10.780;2023-06-14T14:08:43;23.20;96.70
45115;DHT22;30877;43.706;10.780;2023-06-14T14:11:12;23.20;96.70
45115;DHT22;30877;43.706;10.780;2023-06-14T14:13:42;23.10;96.70
45115;DHT22;30877;43.706;10.780;2023-06-14T14:16:11;23.00;96.70
45115;DHT22;30877;43.706;10.780;2023-06-14T14:18:39;22.90;96.70
45115;DHT22;30877;43.706;10.780;2023-06-14T14:21:08;22.50;96.70
45115;DHT22;30877;43.706;10.780;2023-06-14T14:23:37;22.10;96.70
45115;DHT22;30877;43.706;10.780;2023-06-14T14:26:08;21.80;96.70
45115;DHT22;30877;43.706;10.780;2023-06-14T14:28:37;21.50;96.70
45115;DHT22;30877;43.706;10.780;2023-06-14T14:31:07;21.40;96.70
45115;DHT22;30877;43.706;10.780;2023-06-14T14:33:35;21.30;96.70
45115;DHT22;30877;43.706;10.780;2023-06-14T14:36:04;21.30;96.70
45115;DHT22;30877;43.706;10.780;2023-06-14T14:38:35;21.20;96.70
45115;DHT22;30877;43.706;10.780;2023-06-14T14:41:03;21.10;96.70
45115;DHT22;30877;43.706;10.780;2023-06-14T14:43:31;21.00;96.70
45115;DHT22;30877;43.706;10.780;2023-06-14T14:46:00;21.10;96.70
45115;DHT22;30877;43.706;10.780;2023-06-14T14:48:30;21.20;96.70
45115;DHT22;30877;43.706;10.780;2023-06-14T14:50:58;21.20;96.70
45115;DHT22;30877;43.706;10.780;2023-06-14T14:53:27;21.20;96.70
45115;DHT22;30877;43.706;10.780;2023-06-14T14:55:55;21.30;96.70
45115;DHT22;30877;43.706;10.780;2023-06-14T14:58:24;21.40;96.70
45115;DHT22;30877;43.706;10.780;2023-06-14T15:00:52;21.40;96.70
45115;DHT22;30877;43.706;10.780;2023-06-14T15:03:20;21.30;96.70
45115;DHT22;30877;43.706;10.780;2023-06-14T15:05:50;21.20;96.70
45115;DHT22;30877;43.706;10.780;2023-06-14T15:08:18;21.50;96.70
45115;DHT22;30877;43.706;10.780;2023-06-14T15:10:46;21.70;96.70
45115;DHT22;30877;43.706;10.780;2023-06-14T15:13:16;21.80;96.70
45115;DHT22;30877;43.706;10.780;2023-06-14T15:15:44;21.90;96.70
45115;DHT22;30877;43.706;10.780;2023-06-14T15:18:12;21.90;96.70
45115;DHT22;30877;43.706;10.780;2023-06-14T15:20:40;21.90;96.70
45115;DHT22;30877;43.706;10.780;2023-06-14T15:23:10;21.80;96.70
45115;DHT22;30877;43.706;10.780;2023-06-14T15:25:39;21.70;96.70
45115;DHT22;30877;43.706;10.780;2023-06-14T15:28:06;21.70;96.70
45115;DHT22;30877;43.706;10.780;2023-06-14T15:30:36;21.70;96.70
45115;DHT22;30877;43.706;10.780;2023-06-14T15:33:04;21.90;96.70
45115;DHT22;30877;43.706;10.780;2023-06-14T15:35:32;21.90;96.70
45115;DHT22;30877;43.706;10.780;2023-06-14T15:38:01;22.00;96.70
45115;DHT22;30877;43.706;10.780;2023-06-14T15:40:31;22.20;96.70